CYGK

Kingston Norman Rogers Airport

Kingston, Ontario, Canada
METAR CYGK 220300Z 32004KT 300V360 15SM SKC 02/M02 A3036 RMK LAST STFD OBS/NEXT 221000 UTC SLP286
Observed Flight Rules
Apr-22 @ 03:00 UTC (4 hours ago) Visual Flight Rules
Wind Visibility Clouds
320° at 4 knots 15 miles
  • Clear skies
Temperatures Readings
Current 2°C / 36°F
Dewpoint -2°C / 28°F
Humidity 75%
Altimeter 30.36" Hg
Pressure 1028.6 hPa
Elevation 93
METAR CYGK 220300Z 32004KT 300V360 15SM SKC 02/M02 A3036 RMK LAST STFD OBS/NEXT 221000 UTC SLP286
Observed Flight Rules
Apr-22 @ 03:00 UTC
(4 hours ago)
VFR
Wind Visibility
320° at 4 knots 15 miles
Clouds
  • Clear skies
Temperature Dewpoint
2°C / 36°F -2°C / 28°F
Humidity Altimeter Pressure
75% 30.36" Hg 1028.6 hPa